Pleasant View, Colorado
Current Conditions -  °F | °C
As of 9:53 PM on Thursday 30 Oct 2014 (Local Time) from KCEZ Reporting Station
Clear Clear  
Wind Chill: 40°   Ceiling: Unl
Heat Index: 40°   Visibility: 10mi
Dew Point: 24°   Wind: 3mph
Humidity: 53%   Direction: 60°ENE
Pressure: 30.3"   Gusts: NA
Location:  37.59°N, 108.77°W
Report Text: KCEZ 310353Z AUTO 06003KT 10SM CLR 04/M04 A3030 RMK AO2 SLP233 T00441044
Loading
Personal Weather Stations






























Interactive Weather Map
Tropical Storm Tracking
New forecast layout! Learn more

10-Day Weather Forecast

Advertisements
Track Severe Weather on mobile